sensor_id;sensor_type;location;lat;lon;timestamp;temperature;humidity
24338;DHT22;12457;50.832;4.346;2023-05-10T00:01:05;13.60;99.90
24338;DHT22;12457;50.832;4.346;2023-05-10T00:03:30;13.50;99.90
24338;DHT22;12457;50.832;4.346;2023-05-10T00:05:56;13.50;99.90
24338;DHT22;12457;50.832;4.346;2023-05-10T00:08:22;13.50;99.90
24338;DHT22;12457;50.832;4.346;2023-05-10T00:10:48;13.50;99.90
24338;DHT22;12457;50.832;4.346;2023-05-10T00:13:14;13.60;99.90
24338;DHT22;12457;50.832;4.346;2023-05-10T00:15:40;13.60;99.90
24338;DHT22;12457;50.832;4.346;2023-05-10T00:18:06;13.60;99.90
24338;DHT22;12457;50.832;4.346;2023-05-10T00:20:31;13.50;99.90
24338;DHT22;12457;50.832;4.346;2023-05-10T00:22:57;13.50;99.90
24338;DHT22;12457;50.832;4.346;2023-05-10T00:25:23;13.50;99.90
24338;DHT22;12457;50.832;4.346;2023-05-10T00:27:48;13.50;99.90
24338;DHT22;12457;50.832;4.346;2023-05-10T00:30:15;13.50;99.90
24338;DHT22;12457;50.832;4.346;2023-05-10T00:32:40;13.50;99.90
24338;DHT22;12457;50.832;4.346;2023-05-10T00:35:06;13.50;99.90
24338;DHT22;12457;50.832;4.346;2023-05-10T00:37:51;13.50;99.90
24338;DHT22;12457;50.832;4.346;2023-05-10T00:40:17;13.50;99.90
24338;DHT22;12457;50.832;4.346;2023-05-10T00:42:42;13.50;99.90
24338;DHT22;12457;50.832;4.346;2023-05-10T00:45:08;13.50;99.90
24338;DHT22;12457;50.832;4.346;2023-05-10T00:47:34;13.50;99.90
24338;DHT22;12457;50.832;4.346;2023-05-10T00:50:00;13.50;99.90
24338;DHT22;12457;50.832;4.346;2023-05-10T00:52:27;13.50;99.90
24338;DHT22;12457;50.832;4.346;2023-05-10T00:54:55;13.50;99.90
24338;DHT22;12457;50.832;4.346;2023-05-10T00:57:21;13.50;99.90
24338;DHT22;12457;50.832;4.346;2023-05-10T00:59:48;13.50;99.90
24338;DHT22;12457;50.832;4.346;2023-05-10T01:02:14;13.50;99.90
24338;DHT22;12457;50.832;4.346;2023-05-10T01:04:40;13.40;99.90
24338;DHT22;12457;50.832;4.346;2023-05-10T01:07:06;13.50;99.90
24338;DHT22;12457;50.832;4.346;2023-05-10T01:09:33;13.50;99.90
24338;DHT22;12457;50.832;4.346;2023-05-10T01:11:59;13.40;99.90
24338;DHT22;12457;50.832;4.346;2023-05-10T01:14:26;13.40;99.90
24338;DHT22;12457;50.832;4.346;2023-05-10T01:16:52;13.40;99.90
24338;DHT22;12457;50.832;4.346;2023-05-10T01:19:31;13.40;99.90
24338;DHT22;12457;50.832;4.346;2023-05-10T01:38:32;13.60;99.90
24338;DHT22;12457;50.832;4.346;2023-05-10T01:44:13;13.60;99.90
24338;DHT22;12457;50.832;4.346;2023-05-10T01:46:41;13.60;99.90
24338;DHT22;12457;50.832;4.346;2023-05-10T01:49:29;13.60;99.90
24338;DHT22;12457;50.832;4.346;2023-05-10T01:52:08;13.50;99.90
24338;DHT22;12457;50.832;4.346;2023-05-10T01:54:35;13.50;99.90
24338;DHT22;12457;50.832;4.346;2023-05-10T01:57:06;13.50;99.90
24338;DHT22;12457;50.832;4.346;2023-05-10T01:59:35;13.60;99.90
24338;DHT22;12457;50.832;4.346;2023-05-10T02:02:02;13.60;99.90
24338;DHT22;12457;50.832;4.346;2023-05-10T02:04:30;13.60;99.90
24338;DHT22;12457;50.832;4.346;2023-05-10T02:06:56;13.50;99.90
24338;DHT22;12457;50.832;4.346;2023-05-10T02:09:24;13.60;99.90
24338;DHT22;12457;50.832;4.346;2023-05-10T02:11:50;13.60;99.90
24338;DHT22;12457;50.832;4.346;2023-05-10T02:14:18;13.50;99.90
24338;DHT22;12457;50.832;4.346;2023-05-10T02:16:45;13.50;99.90
24338;DHT22;12457;50.832;4.346;2023-05-10T02:19:12;13.60;99.90
24338;DHT22;12457;50.832;4.346;2023-05-10T02:21:40;13.60;99.90
24338;DHT22;12457;50.832;4.346;2023-05-10T02:24:07;13.60;99.90
24338;DHT22;12457;50.832;4.346;2023-05-10T02:26:35;13.60;99.90
24338;DHT22;12457;50.832;4.346;2023-05-10T02:29:05;13.60;99.90
24338;DHT22;12457;50.832;4.346;2023-05-10T02:31:33;13.70;99.90
24338;DHT22;12457;50.832;4.346;2023-05-10T02:34:01;13.60;99.90
24338;DHT22;12457;50.832;4.346;2023-05-10T02:36:28;13.50;99.90
24338;DHT22;12457;50.832;4.346;2023-05-10T02:38:55;13.50;99.90
24338;DHT22;12457;50.832;4.346;2023-05-10T02:41:22;13.50;99.90
24338;DHT22;12457;50.832;4.346;2023-05-10T02:43:51;13.40;99.90
24338;DHT22;12457;50.832;4.346;2023-05-10T02:46:17;13.40;99.90
24338;DHT22;12457;50.832;4.346;2023-05-10T02:48:43;13.40;99.90
24338;DHT22;12457;50.832;4.346;2023-05-10T02:51:10;13.50;99.90
24338;DHT22;12457;50.832;4.346;2023-05-10T02:53:38;13.40;99.90
24338;DHT22;12457;50.832;4.346;2023-05-10T02:56:16;13.50;99.90
24338;DHT22;12457;50.832;4.346;2023-05-10T02:58:46;13.50;99.90
24338;DHT22;12457;50.832;4.346;2023-05-10T03:01:11;13.40;99.90
24338;DHT22;12457;50.832;4.346;2023-05-10T03:03:37;13.50;99.90
24338;DHT22;12457;50.832;4.346;2023-05-10T03:06:03;13.50;99.90
24338;DHT22;12457;50.832;4.346;2023-05-10T03:08:29;13.50;99.90
24338;DHT22;12457;50.832;4.346;2023-05-10T03:16:48;13.30;99.90
24338;DHT22;12457;50.832;4.346;2023-05-10T03:19:24;13.40;99.90
24338;DHT22;12457;50.832;4.346;2023-05-10T03:21:53;13.40;99.90
24338;DHT22;12457;50.832;4.346;2023-05-10T03:24:21;13.40;99.90
24338;DHT22;12457;50.832;4.346;2023-05-10T03:26:48;13.50;99.90
24338;DHT22;12457;50.832;4.346;2023-05-10T03:29:15;13.40;99.90
24338;DHT22;12457;50.832;4.346;2023-05-10T03:31:41;13.30;99.90
24338;DHT22;12457;50.832;4.346;2023-05-10T03:34:07;13.30;99.90
24338;DHT22;12457;50.832;4.346;2023-05-10T03:36:33;13.40;99.90
24338;DHT22;12457;50.832;4.346;2023-05-10T03:39:14;13.30;99.90
24338;DHT22;12457;50.832;4.346;2023-05-10T03:41:39;13.30;99.90
24338;DHT22;12457;50.832;4.346;2023-05-10T03:44:05;13.40;99.90
24338;DHT22;12457;50.832;4.346;2023-05-10T03:46:31;13.40;99.90
24338;DHT22;12457;50.832;4.346;2023-05-10T03:48:57;13.50;99.90
24338;DHT22;12457;50.832;4.346;2023-05-10T03:51:22;13.50;99.90
24338;DHT22;12457;50.832;4.346;2023-05-10T03:53:48;13.40;99.90
24338;DHT22;12457;50.832;4.346;2023-05-10T03:56:14;13.40;99.90
24338;DHT22;12457;50.832;4.346;2023-05-10T03:58:41;13.30;99.90
24338;DHT22;12457;50.832;4.346;2023-05-10T04:01:06;13.20;99.90
24338;DHT22;12457;50.832;4.346;2023-05-10T04:03:32;13.30;99.90
24338;DHT22;12457;50.832;4.346;2023-05-10T04:06:01;13.30;99.90
24338;DHT22;12457;50.832;4.346;2023-05-10T04:08:27;13.40;99.90
24338;DHT22;12457;50.832;4.346;2023-05-10T04:10:53;13.40;99.90
24338;DHT22;12457;50.832;4.346;2023-05-10T04:13:19;13.30;99.90
24338;DHT22;12457;50.832;4.346;2023-05-10T04:15:45;13.30;99.90
24338;DHT22;12457;50.832;4.346;2023-05-10T04:18:10;13.20;99.90
24338;DHT22;12457;50.832;4.346;2023-05-10T04:20:37;13.30;99.90
24338;DHT22;12457;50.832;4.346;2023-05-10T04:23:02;13.20;99.90
24338;DHT22;12457;50.832;4.346;2023-05-10T04:25:28;13.10;99.90
24338;DHT22;12457;50.832;4.346;2023-05-10T04:27:54;13.10;99.90
24338;DHT22;12457;50.832;4.346;2023-05-10T04:30:19;13.10;99.90
24338;DHT22;12457;50.832;4.346;2023-05-10T04:32:45;13.20;99.90
24338;DHT22;12457;50.832;4.346;2023-05-10T04:35:11;13.30;99.90
24338;DHT22;12457;50.832;4.346;2023-05-10T04:37:36;13.30;99.90
24338;DHT22;12457;50.832;4.346;2023-05-10T04:40:03;13.30;99.90
24338;DHT22;12457;50.832;4.346;2023-05-10T04:42:29;13.20;99.90
24338;DHT22;12457;50.832;4.346;2023-05-10T04:44:54;13.30;99.90
24338;DHT22;12457;50.832;4.346;2023-05-10T04:47:20;13.30;99.90
24338;DHT22;12457;50.832;4.346;2023-05-10T04:49:46;13.40;99.90
24338;DHT22;12457;50.832;4.346;2023-05-10T04:52:11;13.50;99.90
24338;DHT22;12457;50.832;4.346;2023-05-10T04:54:37;13.50;99.90
24338;DHT22;12457;50.832;4.346;2023-05-10T04:57:03;13.50;99.90
24338;DHT22;12457;50.832;4.346;2023-05-10T04:59:28;13.50;99.90
24338;DHT22;12457;50.832;4.346;2023-05-10T05:01:54;13.60;99.90
24338;DHT22;12457;50.832;4.346;2023-05-10T05:04:20;13.50;99.90
24338;DHT22;12457;50.832;4.346;2023-05-10T05:06:48;13.60;99.90
24338;DHT22;12457;50.832;4.346;2023-05-10T05:09:14;13.60;99.90
24338;DHT22;12457;50.832;4.346;2023-05-10T05:11:40;13.60;99.90
24338;DHT22;12457;50.832;4.346;2023-05-10T05:14:05;13.50;99.90
24338;DHT22;12457;50.832;4.346;2023-05-10T05:16:31;13.30;99.90
24338;DHT22;12457;50.832;4.346;2023-05-10T05:18:59;13.20;99.90
24338;DHT22;12457;50.832;4.346;2023-05-10T05:21:26;13.20;99.90
24338;DHT22;12457;50.832;4.346;2023-05-10T05:23:52;13.30;99.90
24338;DHT22;12457;50.832;4.346;2023-05-10T05:26:18;13.20;99.90
24338;DHT22;12457;50.832;4.346;2023-05-10T05:28:43;13.20;99.90
24338;DHT22;12457;50.832;4.346;2023-05-10T05:31:10;13.20;99.90
24338;DHT22;12457;50.832;4.346;2023-05-10T05:33:36;13.10;99.90
24338;DHT22;12457;50.832;4.346;2023-05-10T05:36:03;13.00;99.90
24338;DHT22;12457;50.832;4.346;2023-05-10T05:38:29;13.00;99.90
24338;DHT22;12457;50.832;4.346;2023-05-10T05:40:55;13.00;99.90
24338;DHT22;12457;50.832;4.346;2023-05-10T05:43:21;13.10;99.90
24338;DHT22;12457;50.832;4.346;2023-05-10T05:45:47;13.20;99.90
24338;DHT22;12457;50.832;4.346;2023-05-10T05:48:13;13.10;99.90
24338;DHT22;12457;50.832;4.346;2023-05-10T05:50:38;13.20;99.90
24338;DHT22;12457;50.832;4.346;2023-05-10T05:53:04;13.10;99.90
24338;DHT22;12457;50.832;4.346;2023-05-10T05:56:02;13.10;99.90
24338;DHT22;12457;50.832;4.346;2023-05-10T05:58:28;13.10;99.90
24338;DHT22;12457;50.832;4.346;2023-05-10T06:00:54;13.20;99.90
24338;DHT22;12457;50.832;4.346;2023-05-10T06:03:20;13.20;99.90
24338;DHT22;12457;50.832;4.346;2023-05-10T06:05:46;13.20;99.90
24338;DHT22;12457;50.832;4.346;2023-05-10T06:08:12;13.20;99.90
24338;DHT22;12457;50.832;4.346;2023-05-10T06:10:38;13.10;99.90
24338;DHT22;12457;50.832;4.346;2023-05-10T06:13:03;13.00;99.90
24338;DHT22;12457;50.832;4.346;2023-05-10T06:15:29;13.00;99.90
24338;DHT22;12457;50.832;4.346;2023-05-10T06:17:55;13.00;99.90
24338;DHT22;12457;50.832;4.346;2023-05-10T06:20:20;13.00;99.90
24338;DHT22;12457;50.832;4.346;2023-05-10T06:22:47;13.00;99.90
24338;DHT22;12457;50.832;4.346;2023-05-10T06:25:13;12.90;99.90
24338;DHT22;12457;50.832;4.346;2023-05-10T06:27:40;13.00;99.90
24338;DHT22;12457;50.832;4.346;2023-05-10T06:30:06;13.00;99.90
24338;DHT22;12457;50.832;4.346;2023-05-10T06:32:33;13.00;99.90
24338;DHT22;12457;50.832;4.346;2023-05-10T06:34:59;12.90;99.90
24338;DHT22;12457;50.832;4.346;2023-05-10T06:37:24;12.80;99.90
24338;DHT22;12457;50.832;4.346;2023-05-10T06:40:06;12.80;99.90
24338;DHT22;12457;50.832;4.346;2023-05-10T06:42:32;12.80;99.90
24338;DHT22;12457;50.832;4.346;2023-05-10T06:44:58;12.90;99.90
24338;DHT22;12457;50.832;4.346;2023-05-10T06:47:24;12.90;99.90
24338;DHT22;12457;50.832;4.346;2023-05-10T06:49:50;12.80;99.90
24338;DHT22;12457;50.832;4.346;2023-05-10T06:52:15;12.90;99.90
24338;DHT22;12457;50.832;4.346;2023-05-10T06:54:41;13.10;99.90
24338;DHT22;12457;50.832;4.346;2023-05-10T06:57:07;13.20;99.90
24338;DHT22;12457;50.832;4.346;2023-05-10T06:59:32;13.20;99.90
24338;DHT22;12457;50.832;4.346;2023-05-10T07:01:58;13.20;99.90
24338;DHT22;12457;50.832;4.346;2023-05-10T07:04:24;13.30;99.90
24338;DHT22;12457;50.832;4.346;2023-05-10T07:06:49;13.20;99.90
24338;DHT22;12457;50.832;4.346;2023-05-10T07:09:15;13.10;99.90
24338;DHT22;12457;50.832;4.346;2023-05-10T07:11:41;13.20;99.90
24338;DHT22;12457;50.832;4.346;2023-05-10T07:14:07;13.00;99.90
24338;DHT22;12457;50.832;4.346;2023-05-10T07:16:33;13.10;99.90
24338;DHT22;12457;50.832;4.346;2023-05-10T07:18:58;13.20;99.90
24338;DHT22;12457;50.832;4.346;2023-05-10T07:21:24;13.20;99.90
24338;DHT22;12457;50.832;4.346;2023-05-10T07:23:50;13.30;99.90
24338;DHT22;12457;50.832;4.346;2023-05-10T07:26:16;13.30;99.90
24338;DHT22;12457;50.832;4.346;2023-05-10T07:28:42;13.30;99.90
24338;DHT22;12457;50.832;4.346;2023-05-10T07:31:08;13.20;99.90
24338;DHT22;12457;50.832;4.346;2023-05-10T07:33:33;13.20;99.90
24338;DHT22;12457;50.832;4.346;2023-05-10T07:35:59;13.20;99.90
24338;DHT22;12457;50.832;4.346;2023-05-10T07:38:25;13.20;99.90
24338;DHT22;12457;50.832;4.346;2023-05-10T07:40:52;13.30;99.90
24338;DHT22;12457;50.832;4.346;2023-05-10T07:43:18;13.30;99.90
24338;DHT22;12457;50.832;4.346;2023-05-10T07:45:44;13.30;99.90
24338;DHT22;12457;50.832;4.346;2023-05-10T07:48:09;13.50;99.90
24338;DHT22;12457;50.832;4.346;2023-05-10T07:50:35;13.50;99.90
24338;DHT22;12457;50.832;4.346;2023-05-10T07:53:01;13.50;99.90
24338;DHT22;12457;50.832;4.346;2023-05-10T07:55:39;13.70;99.90
24338;DHT22;12457;50.832;4.346;2023-05-10T07:58:04;13.90;99.90
24338;DHT22;12457;50.832;4.346;2023-05-10T08:00:30;13.90;99.90
24338;DHT22;12457;50.832;4.346;2023-05-10T08:02:56;14.00;99.90
24338;DHT22;12457;50.832;4.346;2023-05-10T08:05:21;14.00;99.90
24338;DHT22;12457;50.832;4.346;2023-05-10T08:07:47;14.20;99.90
24338;DHT22;12457;50.832;4.346;2023-05-10T08:10:22;14.30;99.90
24338;DHT22;12457;50.832;4.346;2023-05-10T08:12:47;14.50;99.90
24338;DHT22;12457;50.832;4.346;2023-05-10T08:15:13;14.70;99.90
24338;DHT22;12457;50.832;4.346;2023-05-10T08:17:39;14.70;99.90
24338;DHT22;12457;50.832;4.346;2023-05-10T08:20:05;14.70;99.90
24338;DHT22;12457;50.832;4.346;2023-05-10T08:22:31;14.70;99.90
24338;DHT22;12457;50.832;4.346;2023-05-10T08:24:56;14.80;99.90
24338;DHT22;12457;50.832;4.346;2023-05-10T08:27:22;14.70;99.90
24338;DHT22;12457;50.832;4.346;2023-05-10T08:29:48;14.50;99.90
24338;DHT22;12457;50.832;4.346;2023-05-10T08:32:13;14.50;99.90
24338;DHT22;12457;50.832;4.346;2023-05-10T08:34:39;14.40;99.90
24338;DHT22;12457;50.832;4.346;2023-05-10T08:37:05;14.40;99.90
24338;DHT22;12457;50.832;4.346;2023-05-10T08:39:34;14.40;99.90
24338;DHT22;12457;50.832;4.346;2023-05-10T08:42:02;14.40;99.90
24338;DHT22;12457;50.832;4.346;2023-05-10T08:44:32;14.40;99.90
24338;DHT22;12457;50.832;4.346;2023-05-10T08:46:59;14.50;99.90
24338;DHT22;12457;50.832;4.346;2023-05-10T08:49:31;14.50;99.90
24338;DHT22;12457;50.832;4.346;2023-05-10T08:52:01;14.70;99.90
24338;DHT22;12457;50.832;4.346;2023-05-10T08:54:28;14.60;99.90
24338;DHT22;12457;50.832;4.346;2023-05-10T08:56:56;14.60;99.90
24338;DHT22;12457;50.832;4.346;2023-05-10T08:59:22;14.70;99.90
24338;DHT22;12457;50.832;4.346;2023-05-10T09:01:49;14.60;99.90
24338;DHT22;12457;50.832;4.346;2023-05-10T09:04:16;14.70;99.90
24338;DHT22;12457;50.832;4.346;2023-05-10T09:06:42;14.60;99.90
24338;DHT22;12457;50.832;4.346;2023-05-10T09:09:08;14.60;99.90
24338;DHT22;12457;50.832;4.346;2023-05-10T09:11:34;14.40;99.90
24338;DHT22;12457;50.832;4.346;2023-05-10T09:14:01;14.50;99.90
24338;DHT22;12457;50.832;4.346;2023-05-10T09:16:27;14.40;99.90
24338;DHT22;12457;50.832;4.346;2023-05-10T09:18:53;14.20;99.90
24338;DHT22;12457;50.832;4.346;2023-05-10T09:21:19;14.10;99.90
24338;DHT22;12457;50.832;4.346;2023-05-10T09:23:45;14.10;99.90
24338;DHT22;12457;50.832;4.346;2023-05-10T09:26:49;14.10;99.90
24338;DHT22;12457;50.832;4.346;2023-05-10T09:29:14;14.00;99.90
24338;DHT22;12457;50.832;4.346;2023-05-10T09:31:58;14.00;99.90
24338;DHT22;12457;50.832;4.346;2023-05-10T09:34:31;13.90;99.90
24338;DHT22;12457;50.832;4.346;2023-05-10T09:37:00;14.00;99.90
24338;DHT22;12457;50.832;4.346;2023-05-10T09:39:37;14.00;99.90
24338;DHT22;12457;50.832;4.346;2023-05-10T09:42:05;14.00;99.90
24338;DHT22;12457;50.832;4.346;2023-05-10T09:44:32;14.10;99.90
24338;DHT22;12457;50.832;4.346;2023-05-10T09:46:58;14.10;99.90
24338;DHT22;12457;50.832;4.346;2023-05-10T09:49:24;14.10;99.90
24338;DHT22;12457;50.832;4.346;2023-05-10T09:52:03;14.10;99.90
24338;DHT22;12457;50.832;4.346;2023-05-10T09:54:29;14.20;99.90
24338;DHT22;12457;50.832;4.346;2023-05-10T09:56:55;14.10;99.90
24338;DHT22;12457;50.832;4.346;2023-05-10T09:59:21;14.10;99.90
24338;DHT22;12457;50.832;4.346;2023-05-10T10:01:50;14.00;99.90
24338;DHT22;12457;50.832;4.346;2023-05-10T10:04:17;14.00;99.90
24338;DHT22;12457;50.832;4.346;2023-05-10T10:06:43;13.90;99.90
24338;DHT22;12457;50.832;4.346;2023-05-10T10:09:09;14.00;99.90
24338;DHT22;12457;50.832;4.346;2023-05-10T10:11:37;13.90;99.90
24338;DHT22;12457;50.832;4.346;2023-05-10T10:14:02;13.90;99.90
24338;DHT22;12457;50.832;4.346;2023-05-10T10:16:32;14.00;99.90
24338;DHT22;12457;50.832;4.346;2023-05-10T10:18:58;14.00;99.90
24338;DHT22;12457;50.832;4.346;2023-05-10T10:21:24;14.20;99.90
24338;DHT22;12457;50.832;4.346;2023-05-10T10:23:51;14.30;99.90
24338;DHT22;12457;50.832;4.346;2023-05-10T10:26:23;14.40;99.90
24338;DHT22;12457;50.832;4.346;2023-05-10T10:34:32;14.40;99.90
24338;DHT22;12457;50.832;4.346;2023-05-10T10:37:04;14.60;99.90
24338;DHT22;12457;50.832;4.346;2023-05-10T10:39:30;14.80;99.90
24338;DHT22;12457;50.832;4.346;2023-05-10T10:41:58;15.00;99.90
24338;DHT22;12457;50.832;4.346;2023-05-10T10:55:00;15.40;99.90
24338;DHT22;12457;50.832;4.346;2023-05-10T10:57:27;15.50;99.90
24338;DHT22;12457;50.832;4.346;2023-05-10T11:00:23;15.50;99.90
24338;DHT22;12457;50.832;4.346;2023-05-10T11:07:59;15.60;99.90
24338;DHT22;12457;50.832;4.346;2023-05-10T11:10:26;15.70;99.90
24338;DHT22;12457;50.832;4.346;2023-05-10T11:13:05;15.70;99.90
24338;DHT22;12457;50.832;4.346;2023-05-10T11:15:40;15.80;99.90
24338;DHT22;12457;50.832;4.346;2023-05-10T11:18:20;15.60;99.90
24338;DHT22;12457;50.832;4.346;2023-05-10T11:20:55;15.70;99.90
24338;DHT22;12457;50.832;4.346;2023-05-10T11:23:21;15.60;99.90
24338;DHT22;12457;50.832;4.346;2023-05-10T11:25:47;15.60;99.90
24338;DHT22;12457;50.832;4.346;2023-05-10T11:28:14;15.50;99.90
24338;DHT22;12457;50.832;4.346;2023-05-10T11:30:43;15.60;99.90
24338;DHT22;12457;50.832;4.346;2023-05-10T11:33:14;15.80;99.90
24338;DHT22;12457;50.832;4.346;2023-05-10T11:35:41;16.30;99.90
24338;DHT22;12457;50.832;4.346;2023-05-10T11:38:10;16.60;99.90
24338;DHT22;12457;50.832;4.346;2023-05-10T11:40:37;16.90;99.90
24338;DHT22;12457;50.832;4.346;2023-05-10T11:43:17;17.00;99.90
24338;DHT22;12457;50.832;4.346;2023-05-10T11:45:43;17.00;99.90
24338;DHT22;12457;50.832;4.346;2023-05-10T11:48:10;17.10;99.90
24338;DHT22;12457;50.832;4.346;2023-05-10T11:50:36;17.20;99.90
24338;DHT22;12457;50.832;4.346;2023-05-10T11:53:01;17.20;99.90
24338;DHT22;12457;50.832;4.346;2023-05-10T11:55:27;17.20;99.90
24338;DHT22;12457;50.832;4.346;2023-05-10T11:58:01;17.20;99.90
24338;DHT22;12457;50.832;4.346;2023-05-10T12:00:28;17.30;99.90
24338;DHT22;12457;50.832;4.346;2023-05-10T12:02:54;17.40;99.90
24338;DHT22;12457;50.832;4.346;2023-05-10T12:05:20;17.60;99.90
24338;DHT22;12457;50.832;4.346;2023-05-10T12:07:46;17.80;99.90
24338;DHT22;12457;50.832;4.346;2023-05-10T12:10:13;17.80;99.90
24338;DHT22;12457;50.832;4.346;2023-05-10T12:12:47;18.00;99.90
24338;DHT22;12457;50.832;4.346;2023-05-10T12:15:22;18.20;99.90
24338;DHT22;12457;50.832;4.346;2023-05-10T12:17:48;18.20;99.90
24338;DHT22;12457;50.832;4.346;2023-05-10T12:20:18;18.40;99.90
24338;DHT22;12457;50.832;4.346;2023-05-10T12:22:46;18.30;99.90
24338;DHT22;12457;50.832;4.346;2023-05-10T12:25:12;18.30;99.90
24338;DHT22;12457;50.832;4.346;2023-05-10T12:27:38;18.20;99.90
24338;DHT22;12457;50.832;4.346;2023-05-10T12:30:04;18.20;99.90
24338;DHT22;12457;50.832;4.346;2023-05-10T12:32:44;18.10;99.90
24338;DHT22;12457;50.832;4.346;2023-05-10T12:35:15;18.10;99.90
24338;DHT22;12457;50.832;4.346;2023-05-10T12:37:44;18.40;99.90
24338;DHT22;12457;50.832;4.346;2023-05-10T12:40:11;18.50;99.90
24338;DHT22;12457;50.832;4.346;2023-05-10T12:42:39;18.60;99.90
24338;DHT22;12457;50.832;4.346;2023-05-10T12:45:06;18.90;99.90
24338;DHT22;12457;50.832;4.346;2023-05-10T12:47:32;19.10;99.90
24338;DHT22;12457;50.832;4.346;2023-05-10T12:49:59;19.10;99.90
24338;DHT22;12457;50.832;4.346;2023-05-10T12:52:26;19.10;99.90
24338;DHT22;12457;50.832;4.346;2023-05-10T12:54:52;19.00;99.90
24338;DHT22;12457;50.832;4.346;2023-05-10T12:57:28;19.20;99.90
24338;DHT22;12457;50.832;4.346;2023-05-10T12:59:54;19.50;99.90
24338;DHT22;12457;50.832;4.346;2023-05-10T13:02:20;19.60;99.90
24338;DHT22;12457;50.832;4.346;2023-05-10T13:04:48;19.50;99.90
24338;DHT22;12457;50.832;4.346;2023-05-10T13:07:14;19.50;99.90
24338;DHT22;12457;50.832;4.346;2023-05-10T13:09:39;19.40;99.90
24338;DHT22;12457;50.832;4.346;2023-05-10T13:12:05;19.60;99.90
24338;DHT22;12457;50.832;4.346;2023-05-10T13:14:31;19.80;99.90
24338;DHT22;12457;50.832;4.346;2023-05-10T13:16:57;19.80;99.90
24338;DHT22;12457;50.832;4.346;2023-05-10T13:19:23;19.70;99.90
24338;DHT22;12457;50.832;4.346;2023-05-10T13:21:49;19.70;99.90
24338;DHT22;12457;50.832;4.346;2023-05-10T13:24:15;19.80;99.90
24338;DHT22;12457;50.832;4.346;2023-05-10T13:26:42;19.70;99.90
24338;DHT22;12457;50.832;4.346;2023-05-10T13:29:32;19.60;99.90
24338;DHT22;12457;50.832;4.346;2023-05-10T13:31:59;19.70;99.90
24338;DHT22;12457;50.832;4.346;2023-05-10T13:34:24;19.70;99.90
24338;DHT22;12457;50.832;4.346;2023-05-10T13:36:50;19.70;99.90
24338;DHT22;12457;50.832;4.346;2023-05-10T13:39:16;19.60;99.90
24338;DHT22;12457;50.832;4.346;2023-05-10T13:41:42;19.60;99.90
24338;DHT22;12457;50.832;4.346;2023-05-10T13:44:14;19.60;99.90
24338;DHT22;12457;50.832;4.346;2023-05-10T13:46:41;19.70;99.90
24338;DHT22;12457;50.832;4.346;2023-05-10T13:49:09;19.60;99.90
24338;DHT22;12457;50.832;4.346;2023-05-10T13:51:35;19.50;99.90
24338;DHT22;12457;50.832;4.346;2023-05-10T13:54:04;19.20;99.90
24338;DHT22;12457;50.832;4.346;2023-05-10T13:56:31;19.30;99.90
24338;DHT22;12457;50.832;4.346;2023-05-10T13:58:57;19.20;99.90
24338;DHT22;12457;50.832;4.346;2023-05-10T14:01:23;19.10;99.90
24338;DHT22;12457;50.832;4.346;2023-05-10T14:03:49;19.00;99.90
24338;DHT22;12457;50.832;4.346;2023-05-10T14:06:15;18.90;99.90
24338;DHT22;12457;50.832;4.346;2023-05-10T14:08:40;19.00;99.90
24338;DHT22;12457;50.832;4.346;2023-05-10T14:11:06;18.90;99.90
24338;DHT22;12457;50.832;4.346;2023-05-10T14:13:32;18.90;99.90
24338;DHT22;12457;50.832;4.346;2023-05-10T14:15:58;18.70;99.90
24338;DHT22;12457;50.832;4.346;2023-05-10T14:18:26;18.70;99.90
24338;DHT22;12457;50.832;4.346;2023-05-10T14:20:52;18.70;99.90
24338;DHT22;12457;50.832;4.346;2023-05-10T14:23:18;18.90;99.90
24338;DHT22;12457;50.832;4.346;2023-05-10T14:25:49;18.80;99.90
24338;DHT22;12457;50.832;4.346;2023-05-10T14:28:15;18.90;99.90
24338;DHT22;12457;50.832;4.346;2023-05-10T14:30:41;19.30;99.90
24338;DHT22;12457;50.832;4.346;2023-05-10T14:33:07;19.40;99.90
24338;DHT22;12457;50.832;4.346;2023-05-10T14:35:33;19.40;99.90
24338;DHT22;12457;50.832;4.346;2023-05-10T14:37:59;19.40;99.90
24338;DHT22;12457;50.832;4.346;2023-05-10T14:40:25;19.30;99.90
24338;DHT22;12457;50.832;4.346;2023-05-10T14:42:56;18.90;99.90
24338;DHT22;12457;50.832;4.346;2023-05-10T14:45:22;18.90;99.90
24338;DHT22;12457;50.832;4.346;2023-05-10T14:47:49;18.80;99.90
24338;DHT22;12457;50.832;4.346;2023-05-10T14:50:15;18.50;99.90
24338;DHT22;12457;50.832;4.346;2023-05-10T14:52:44;18.20;99.90
24338;DHT22;12457;50.832;4.346;2023-05-10T14:55:10;18.20;99.90
24338;DHT22;12457;50.832;4.346;2023-05-10T14:57:36;17.90;99.90
24338;DHT22;12457;50.832;4.346;2023-05-10T15:00:03;17.70;99.90
24338;DHT22;12457;50.832;4.346;2023-05-10T15:02:30;17.70;99.90
24338;DHT22;12457;50.832;4.346;2023-05-10T15:04:57;17.20;99.90
24338;DHT22;12457;50.832;4.346;2023-05-10T15:07:23;16.80;99.90
24338;DHT22;12457;50.832;4.346;2023-05-10T15:09:50;16.30;99.90
24338;DHT22;12457;50.832;4.346;2023-05-10T15:12:17;16.00;99.90
24338;DHT22;12457;50.832;4.346;2023-05-10T15:14:49;15.60;99.90
24338;DHT22;12457;50.832;4.346;2023-05-10T15:17:15;15.50;99.90
24338;DHT22;12457;50.832;4.346;2023-05-10T15:19:41;15.40;99.90
24338;DHT22;12457;50.832;4.346;2023-05-10T15:22:07;15.40;99.90
24338;DHT22;12457;50.832;4.346;2023-05-10T15:24:33;15.40;99.90
24338;DHT22;12457;50.832;4.346;2023-05-10T15:26:59;15.40;99.90
24338;DHT22;12457;50.832;4.346;2023-05-10T15:29:26;15.50;99.90
24338;DHT22;12457;50.832;4.346;2023-05-10T15:31:56;15.60;99.90
24338;DHT22;12457;50.832;4.346;2023-05-10T15:34:24;15.60;99.90
24338;DHT22;12457;50.832;4.346;2023-05-10T15:36:52;15.80;99.90
24338;DHT22;12457;50.832;4.346;2023-05-10T15:39:18;15.90;99.90
24338;DHT22;12457;50.832;4.346;2023-05-10T15:41:44;16.00;99.90
24338;DHT22;12457;50.832;4.346;2023-05-10T15:44:10;16.10;99.90
24338;DHT22;12457;50.832;4.346;2023-05-10T15:46:36;16.30;99.90
24338;DHT22;12457;50.832;4.346;2023-05-10T15:49:03;16.40;99.90
24338;DHT22;12457;50.832;4.346;2023-05-10T15:51:29;16.60;99.90
24338;DHT22;12457;50.832;4.346;2023-05-10T15:53:55;16.70;99.90
24338;DHT22;12457;50.832;4.346;2023-05-10T15:56:21;16.90;99.90
24338;DHT22;12457;50.832;4.346;2023-05-10T15:58:47;17.10;99.90
24338;DHT22;12457;50.832;4.346;2023-05-10T16:01:14;17.20;99.90
24338;DHT22;12457;50.832;4.346;2023-05-10T16:03:41;17.10;99.90
24338;DHT22;12457;50.832;4.346;2023-05-10T16:06:07;17.10;99.90
24338;DHT22;12457;50.832;4.346;2023-05-10T16:08:34;17.00;99.90
24338;DHT22;12457;50.832;4.346;2023-05-10T16:11:00;17.00;99.90
24338;DHT22;12457;50.832;4.346;2023-05-10T16:13:26;17.00;99.90
24338;DHT22;12457;50.832;4.346;2023-05-10T16:15:52;16.90;99.90
24338;DHT22;12457;50.832;4.346;2023-05-10T16:18:18;16.80;99.90